Terminal Aerodrome Forecast
Issued by NWS

Current Version | Previous Version | Text Only | Print | Product List | Glossary On
Versions: 1 2 3 4 5 6 7 8 9 10 11 12 13 14 15 16 17 18 19
000
FTUS44 KCRP 240500
TAFLRD
TAF
KLRD 240535Z 2406/2506 13013KT P6SM FEW010 BKN150
     FM241000 15011KT P6SM BKN011
     FM241500 VRB04KT P6SM SCT020 BKN200
     FM241900 36010KT P6SM FEW250
     FM242300 06008KT P6SM SCT200=

USA.gov is the U.S. government's official web portal to all federal, state and local government web resources and services.